Time;durP1;ratioP1;P1;durP2;ratioP2;P2;SDS_P1;SDS_P2;PMS_P1;PMS_P2;Temp;Humidity;BMP_temperature;BMP_pressure;BME280_temperature;BME280_humidity;BME280_pressure;Samples;Min_cycle;Max_cycle;Signal;HPM_P1;HPM_P2
2022/12/16 00:00:23;;;;;;;0.63;0.63;;;;;;;6.08;100.00;99493.22;5072303;28;20216;-65
2022/12/16 00:02:52;;;;;;;0.60;0.60;;;;;;;6.01;100.00;99479.72;5072166;28;20655;-65
2022/12/16 00:05:19;;;;;;;0.50;0.50;;;;;;;6.08;100.00;99480.50;5072402;28;20274;-65
2022/12/16 00:07:46;;;;;;;0.77;0.77;;;;;;;6.09;100.00;99485.56;5072835;28;20249;-65
2022/12/16 00:10:13;;;;;;;10.17;1.27;;;;;;;5.98;100.00;99463.66;5070858;28;20223;-65
2022/12/16 00:12:40;;;;;;;0.50;0.50;;;;;;;6.07;100.00;99474.59;5071335;28;20652;-65
2022/12/16 00:15:07;;;;;;;0.63;0.63;;;;;;;6.06;100.00;99469.50;5067471;28;20216;-65
2022/12/16 00:17:35;;;;;;;0.60;0.60;;;;;;;6.05;100.00;99471.19;5071797;28;20200;-65
2022/12/16 00:20:04;;;;;;;0.60;0.60;;;;;;;6.05;100.00;99473.75;5072375;28;20195;-65
2022/12/16 00:22:30;;;;;;;0.80;0.80;;;;;;;6.06;100.00;99482.22;5072192;28;20196;-65
2022/12/16 00:24:57;;;;;;;0.53;0.53;;;;;;;6.06;100.00;99480.53;5071384;28;20200;-65
2022/12/16 00:27:24;;;;;;;0.40;0.40;;;;;;;6.03;100.00;99480.56;5071609;28;20274;-65
2022/12/16 00:29:51;;;;;;;0.50;0.50;;;;;;;5.99;100.00;99478.91;5072319;28;20196;-65
2022/12/16 00:32:17;;;;;;;0.50;0.50;;;;;;;5.95;100.00;99481.47;5072042;28;20277;-65
2022/12/16 00:34:44;;;;;;;0.60;0.60;;;;;;;5.93;100.00;99478.97;5071948;28;20675;-65
2022/12/16 00:37:13;;;;;;;0.60;0.60;;;;;;;5.91;100.00;99482.38;5069770;28;20200;-65
2022/12/16 00:39:39;;;;;;;0.50;0.50;;;;;;;5.86;100.00;99494.28;5071340;28;20215;-65
2022/12/16 00:42:06;;;;;;;0.80;0.80;;;;;;;5.81;100.00;99491.78;5071294;28;20203;-65
2022/12/16 00:44:33;;;;;;;0.60;0.60;;;;;;;5.81;100.00;99491.78;5070070;28;20219;-65
2022/12/16 00:47:00;;;;;;;0.47;0.47;;;;;;;5.83;100.00;99500.22;5071061;28;20204;-65
2022/12/16 00:49:27;;;;;;;0.90;0.90;;;;;;;5.72;100.00;99484.22;5071470;28;20200;-63
2022/12/16 00:51:53;;;;;;;0.47;0.47;;;;;;;5.80;100.00;99495.16;5071706;28;20231;-65
2022/12/16 00:54:22;;;;;;;0.93;0.93;;;;;;;5.79;100.00;99490.94;5071940;28;20238;-65
2022/12/16 00:56:48;;;;;;;0.90;0.90;;;;;;;5.76;100.00;99486.72;5068363;28;20269;-65
2022/12/16 00:59:15;;;;;;;1.03;1.03;;;;;;;5.80;100.00;99474.81;5071631;28;20705;-65
2022/12/16 01:01:42;;;;;;;0.60;0.60;;;;;;;5.66;100.00;99476.63;5069610;28;20220;-65
2022/12/16 01:04:09;;;;;;;0.60;0.60;;;;;;;5.60;100.00;99477.53;5071087;28;20290;-65
2022/12/16 01:06:35;;;;;;;0.67;0.67;;;;;;;5.47;100.00;99475.13;5071147;28;20580;-64
2022/12/16 01:09:02;;;;;;;0.57;0.57;;;;;;;5.51;100.00;99475.09;5071647;28;20585;-65
2022/12/16 01:11:30;;;;;;;1.00;1.00;;;;;;;5.52;100.00;99463.22;5070176;28;20215;-65
2022/12/16 01:13:58;;;;;;;0.60;0.60;;;;;;;5.53;100.00;99475.91;5071086;28;20204;-65
2022/12/16 01:16:25;;;;;;;0.40;0.40;;;;;;;5.54;100.00;99490.31;5071143;28;20203;-65
2022/12/16 01:18:52;;;;;;;0.80;0.80;;;;;;;5.53;100.00;99505.56;5070956;28;20199;-65
2022/12/16 01:21:19;;;;;;;0.50;0.50;;;;;;;5.56;100.00;99513.19;5071398;28;20192;-65
2022/12/16 01:23:50;;;;;;;0.97;0.97;;;;;;;5.59;100.00;99515.72;5069891;28;20223;-65
2022/12/16 01:26:18;;;;;;;0.53;0.53;;;;;;;5.55;100.00;99508.97;5070406;28;20207;-65
2022/12/16 01:28:48;;;;;;;0.73;0.73;;;;;;;5.51;100.00;99492.03;5070762;28;20199;-65
2022/12/16 01:31:16;;;;;;;1.27;1.27;;;;;;;5.40;100.00;99498.91;5070312;28;20227;-65
2022/12/16 01:33:44;;;;;;;0.77;0.77;;;;;;;5.45;100.00;99497.19;5070110;28;20197;-65
2022/12/16 01:36:11;;;;;;;1.83;1.73;;;;;;;5.46;100.00;99489.53;5069379;28;20254;-65
2022/12/16 01:38:38;;;;;;;0.87;0.87;;;;;;;5.41;100.00;99467.56;5071254;28;20577;-65
2022/12/16 01:41:05;;;;;;;0.53;0.53;;;;;;;5.44;100.00;99470.06;5066764;28;20254;-65
2022/12/16 01:43:35;;;;;;;0.50;0.50;;;;;;;5.40;100.00;99463.31;5070560;28;20203;-65
2022/12/16 01:46:09;;;;;;;0.60;0.60;;;;;;;5.48;100.00;99476.81;5070515;28;20196;-64
2022/12/16 01:48:43;;;;;;;0.60;0.60;;;;;;;5.35;100.00;99453.19;5070521;28;20238;-65
2022/12/16 01:51:16;;;;;;;11.80;1.93;;;;;;;5.36;100.00;99448.97;5070441;28;20615;-64
2022/12/16 01:53:45;;;;;;;0.70;0.70;;;;;;;5.30;100.00;99455.75;5069591;28;20258;-65
2022/12/16 01:56:15;;;;;;;0.60;0.60;;;;;;;5.30;100.00;99468.47;5069367;28;20631;-65
2022/12/16 01:58:43;;;;;;;0.60;0.60;;;;;;;5.29;100.00;99456.66;5069891;28;20214;-65
2022/12/16 02:01:13;;;;;;;0.50;0.50;;;;;;;5.34;100.00;99448.13;5069841;28;20285;-65
2022/12/16 02:03:42;;;;;;;0.67;0.67;;;;;;;5.34;100.00;99448.13;5070406;28;20204;-65
2022/12/16 02:06:10;;;;;;;0.60;0.60;;;;;;;5.35;100.00;99454.91;5070623;28;20208;-64
2022/12/16 02:08:37;;;;;;;0.70;0.70;;;;;;;5.39;100.00;99451.47;5070650;28;20200;-65
2022/12/16 02:11:32;;;;;;;0.60;0.60;;;;;;;5.45;100.00;99456.50;5069617;28;20452;-63
2022/12/16 02:14:14;;;;;;;0.50;0.50;;;;;;;5.48;100.00;99456.47;5068647;28;20204;-65
2022/12/16 02:16:53;;;;;;;0.50;0.50;;;;;;;5.41;100.00;99442.13;5069332;28;20195;-65
2022/12/16 02:19:42;;;;;;;0.50;0.50;;;;;;;5.41;100.00;99444.66;5070300;28;20188;-64
2022/12/16 02:22:26;;;;;;;0.90;0.90;;;;;;;5.42;100.00;99454.00;5067211;28;20196;-65
2022/12/16 02:25:25;;;;;;;0.67;0.67;;;;;;;5.39;100.00;99439.63;5070380;28;20195;-65
2022/12/16 02:28:01;;;;;;;0.63;0.63;;;;;;;5.42;100.00;99441.28;5065912;28;20671;-65
2022/12/16 02:30:53;;;;;;;1.97;1.97;;;;;;;5.43;100.00;99438.72;5069354;28;20195;-65
2022/12/16 02:34:02;;;;;;;0.53;0.53;;;;;;;5.38;100.00;99445.53;5068603;28;20617;-65
2022/12/16 02:36:42;;;;;;;0.63;0.63;;;;;;;5.26;100.00;99426.19;5069744;28;20625;-64
2022/12/16 02:39:16;;;;;;;0.83;0.83;;;;;;;5.34;100.00;99441.34;5070190;28;20672;-65
2022/12/16 02:41:50;;;;;;;0.80;0.80;;;;;;;5.23;100.00;99431.25;5069300;28;20653;-65
2022/12/16 02:44:18;;;;;;;0.60;0.60;;;;;;;5.40;100.00;99455.69;5068463;28;20196;-65
2022/12/16 02:46:54;;;;;;;0.60;0.60;;;;;;;5.39;100.00;99444.69;5069527;28;20199;-65
2022/12/16 02:49:46;;;;;;;0.70;0.70;;;;;;;5.41;100.00;99447.22;5067964;28;20682;-65
2022/12/16 02:52:15;;;;;;;0.40;0.40;;;;;;;5.40;100.00;99443.81;5069643;28;20293;-65
2022/12/16 02:54:43;;;;;;;0.60;0.60;;;;;;;5.42;100.00;99442.13;5066650;28;20192;-65
2022/12/16 02:57:24;;;;;;;0.60;0.60;;;;;;;5.41;100.00;99434.50;5069837;28;20196;-65
2022/12/16 03:00:00;;;;;;;0.50;0.50;;;;;;;5.41;100.00;99426.88;5069673;28;20192;-65
2022/12/16 03:02:36;;;;;;;0.67;0.67;;;;;;;5.34;100.00;99423.53;5072377;28;20304;-65
2022/12/16 03:05:09;;;;;;;0.50;0.50;;;;;;;5.38;100.00;99434.53;5073371;28;20196;-65
2022/12/16 03:07:40;;;;;;;0.70;0.70;;;;;;;5.41;100.00;99434.50;5073348;28;20196;-65
2022/12/16 03:10:11;;;;;;;0.53;0.53;;;;;;;5.28;100.00;99429.53;5073125;28;20230;-65
2022/12/16 03:12:42;;;;;;;0.90;0.90;;;;;;;5.41;100.00;99465.00;5073327;28;20220;-64
2022/12/16 03:15:12;;;;;;;0.70;0.70;;;;;;;5.41;100.00;99468.41;5073178;28;20196;-65
2022/12/16 03:17:41;;;;;;;0.60;0.60;;;;;;;5.38;100.00;99454.88;5072789;28;20223;-64
2022/12/16 03:20:12;;;;;;;0.80;0.80;;;;;;;5.32;100.00;99460.84;5073042;28;20253;-65
2022/12/16 03:22:42;;;;;;;0.73;0.73;;;;;;;5.29;100.00;99461.72;5070609;28;20196;-65
2022/12/16 03:25:10;;;;;;;0.50;0.50;;;;;;;5.18;100.00;99458.41;5073278;28;20204;-64
2022/12/16 03:27:46;;;;;;;0.60;0.60;;;;;;;5.12;100.00;99458.47;5072621;28;20199;-65
2022/12/16 03:30:17;;;;;;;0.70;0.70;;;;;;;5.03;100.00;99455.16;5073265;28;20727;-65
2022/12/16 03:32:52;;;;;;;0.40;0.40;;;;;;;5.07;100.00;99469.53;5072739;28;20698;-65
2022/12/16 03:35:22;;;;;;;0.93;0.93;;;;;;;5.03;100.00;99463.63;5072846;28;20192;-65
2022/12/16 03:37:54;;;;;;;0.60;0.60;;;;;;;5.04;100.00;99465.28;5071013;28;20196;-63
2022/12/16 03:40:23;;;;;;;0.50;0.50;;;;;;;5.08;100.00;99459.34;5072650;28;20208;-65
2022/12/16 03:42:51;;;;;;;0.90;0.90;;;;;;;5.08;100.00;99464.41;5073060;28;20200;-65
2022/12/16 03:45:23;;;;;;;0.60;0.60;;;;;;;5.07;100.00;99464.44;5073391;28;20667;-65
2022/12/16 03:47:52;;;;;;;0.67;0.67;;;;;;;5.12;100.00;99458.47;5073259;28;20618;-65
2022/12/16 03:50:22;;;;;;;0.40;0.40;;;;;;;5.20;100.00;99479.56;5072704;28;20188;-65
2022/12/16 03:52:48;;;;;;;0.50;0.50;;;;;;;5.21;100.00;99480.41;5071859;28;20587;-65
2022/12/16 03:55:15;;;;;;;0.50;0.50;;;;;;;5.19;100.00;99480.44;5072347;28;20625;-65
2022/12/16 03:57:42;;;;;;;0.70;0.70;;;;;;;5.25;100.00;99480.38;5073035;28;20250;-65
2022/12/16 04:00:10;;;;;;;0.70;0.70;;;;;;;5.32;100.00;99478.66;5072833;28;20592;-64
2022/12/16 04:02:37;;;;;;;0.50;0.50;;;;;;;5.32;100.00;99470.16;5071159;28;20224;-65
2022/12/16 04:05:06;;;;;;;0.53;0.53;;;;;;;5.25;100.00;99460.06;5069790;28;20211;-64
2022/12/16 04:07:33;;;;;;;0.67;0.67;;;;;;;5.27;100.00;99465.97;5071658;28;20204;-64
2022/12/16 04:10:00;;;;;;;1.17;1.17;;;;;;;5.28;100.00;99454.09;5072529;28;20656;-65
2022/12/16 04:26:21;;;;;;;0.50;0.50;;;;;;;5.34;100.00;99468.44;5071994;28;20266;-64
2022/12/16 04:28:48;;;;;;;0.50;0.50;;;;;;;5.35;100.00;99465.06;5071987;28;20196;-65
2022/12/16 04:31:14;;;;;;;0.50;0.50;;;;;;;5.39;100.00;99471.81;5071994;28;20215;-65
